createdAt,value
2022-10-06T00:01:21.359Z,14.80
2022-10-06T00:03:51.495Z,14.82
2022-10-06T00:06:20.400Z,14.78
2022-10-06T00:08:49.526Z,14.78
2022-10-06T00:11:18.455Z,14.79
2022-10-06T00:13:46.897Z,14.81
2022-10-06T00:16:19.234Z,14.85
2022-10-06T00:18:48.440Z,14.82
2022-10-06T00:21:17.548Z,14.82
2022-10-06T00:23:46.355Z,14.80
2022-10-06T00:26:17.432Z,14.76
2022-10-06T00:28:49.990Z,14.71
2022-10-06T00:31:20.124Z,14.69
2022-10-06T00:33:50.600Z,14.71
2022-10-06T00:36:19.653Z,14.73
2022-10-06T00:38:48.629Z,14.71
2022-10-06T00:41:18.776Z,14.73
2022-10-06T00:43:49.271Z,14.66
2022-10-06T00:46:31.105Z,14.61
2022-10-06T00:49:07.573Z,14.57
2022-10-06T00:51:39.695Z,14.55
2022-10-06T00:54:09.627Z,14.57
2022-10-06T00:56:40.864Z,14.56
2022-10-06T00:59:15.012Z,14.53
2022-10-06T01:02:06.298Z,14.46
2022-10-06T01:04:38.642Z,14.39
2022-10-06T01:07:08.377Z,14.32
2022-10-06T01:09:38.248Z,14.27
2022-10-06T01:12:09.008Z,14.26
2022-10-06T01:14:39.641Z,14.24
2022-10-06T01:17:44.709Z,14.26
2022-10-06T01:20:18.181Z,14.26
2022-10-06T01:22:55.843Z,14.25
2022-10-06T01:25:24.849Z,14.27
2022-10-06T01:27:55.409Z,14.26
2022-10-06T01:30:31.966Z,14.28
2022-10-06T01:33:00.947Z,14.26
2022-10-06T01:35:30.116Z,14.30
2022-10-06T01:38:00.387Z,14.28
2022-10-06T01:40:30.544Z,14.24
2022-10-06T01:43:02.320Z,14.23
2022-10-06T01:45:31.007Z,14.21
2022-10-06T01:47:59.525Z,14.16
2022-10-06T01:50:29.844Z,14.19
2022-10-06T01:52:58.765Z,14.19
2022-10-06T01:55:27.930Z,14.17
2022-10-06T01:57:58.918Z,14.08
2022-10-06T02:00:27.560Z,14.03
2022-10-06T02:02:56.050Z,13.97
2022-10-06T02:05:25.407Z,13.96
2022-10-06T02:07:54.836Z,13.93
2022-10-06T02:10:23.636Z,13.89
2022-10-06T02:12:54.474Z,13.85
2022-10-06T02:15:25.418Z,13.83
2022-10-06T02:17:55.046Z,13.78
2022-10-06T02:20:28.396Z,13.69
2022-10-06T02:22:56.945Z,13.68
2022-10-06T02:25:25.376Z,13.69
2022-10-06T02:27:55.565Z,13.67
2022-10-06T02:30:24.507Z,13.71
2022-10-06T02:32:53.662Z,13.73
2022-10-06T02:35:23.325Z,13.77
2022-10-06T02:37:52.681Z,13.77
2022-10-06T02:40:21.748Z,13.74
2022-10-06T02:42:50.610Z,13.77
2022-10-06T02:45:21.270Z,13.79
2022-10-06T02:47:50.056Z,13.82
2022-10-06T02:50:19.124Z,13.82
2022-10-06T02:52:47.750Z,13.81
2022-10-06T02:55:16.608Z,13.85
2022-10-06T02:57:45.644Z,13.83
2022-10-06T03:00:15.563Z,13.82
2022-10-06T03:02:49.849Z,13.84
2022-10-06T03:05:18.669Z,13.85
2022-10-06T03:07:47.176Z,13.88
2022-10-06T03:10:16.665Z,13.88
2022-10-06T03:12:45.123Z,13.86
2022-10-06T03:15:14.191Z,13.86
2022-10-06T03:17:43.468Z,13.90
2022-10-06T03:20:11.919Z,13.89
2022-10-06T03:22:40.499Z,13.86
2022-10-06T03:25:10.923Z,13.83
2022-10-06T03:27:39.397Z,13.81
2022-10-06T03:30:08.554Z,13.75
2022-10-06T03:32:38.930Z,13.75
2022-10-06T03:35:08.507Z,13.81
2022-10-06T03:37:37.079Z,13.82
2022-10-06T03:40:06.560Z,13.79
2022-10-06T03:42:35.086Z,13.80
2022-10-06T03:45:04.166Z,13.80
2022-10-06T03:47:34.102Z,13.80
2022-10-06T03:50:02.712Z,13.79
2022-10-06T03:52:31.584Z,13.78
2022-10-06T03:55:00.406Z,13.72
2022-10-06T03:57:29.265Z,13.64
2022-10-06T04:00:00.154Z,13.59
2022-10-06T04:02:29.674Z,13.60
2022-10-06T04:04:58.190Z,13.54
2022-10-06T04:07:27.045Z,13.50
2022-10-06T04:09:56.196Z,13.47
2022-10-06T04:12:24.784Z,13.47
2022-10-06T04:14:59.229Z,13.45
2022-10-06T04:17:29.426Z,13.46
2022-10-06T04:19:57.861Z,13.48
2022-10-06T04:22:27.361Z,13.47
2022-10-06T04:24:56.454Z,13.48
2022-10-06T04:27:27.755Z,13.45
2022-10-06T04:30:06.653Z,13.49
2022-10-06T04:32:35.782Z,13.49
2022-10-06T04:35:05.238Z,13.49
2022-10-06T04:37:34.866Z,13.47
2022-10-06T04:40:04.608Z,13.47
2022-10-06T04:42:35.344Z,13.47
2022-10-06T04:45:08.220Z,13.46
2022-10-06T04:47:38.109Z,13.42
2022-10-06T04:50:06.953Z,13.45
2022-10-06T04:52:35.921Z,13.43
2022-10-06T04:55:05.070Z,13.44
2022-10-06T04:57:33.591Z,13.42
2022-10-06T05:00:21.613Z,13.40
2022-10-06T05:02:50.535Z,13.39
2022-10-06T05:05:19.433Z,13.39
2022-10-06T05:07:48.555Z,13.34
2022-10-06T05:10:17.725Z,13.35
2022-10-06T05:12:46.837Z,13.36
2022-10-06T05:15:16.250Z,13.38
2022-10-06T05:17:44.980Z,13.36
2022-10-06T05:20:15.288Z,13.45
2022-10-06T05:22:43.869Z,13.49
2022-10-06T05:25:13.391Z,13.59
2022-10-06T05:27:41.912Z,13.66
2022-10-06T05:30:11.193Z,13.73
2022-10-06T05:32:40.142Z,13.74
2022-10-06T05:35:10.039Z,13.72
2022-10-06T05:37:38.792Z,13.73
2022-10-06T05:40:08.246Z,13.81
2022-10-06T05:42:36.977Z,13.85
2022-10-06T05:45:06.481Z,13.95
2022-10-06T05:47:35.269Z,14.04
2022-10-06T05:50:04.971Z,14.12
2022-10-06T05:52:33.492Z,14.18
2022-10-06T05:55:02.262Z,14.26
2022-10-06T05:57:31.193Z,14.31
2022-10-06T05:59:59.953Z,14.52
2022-10-06T06:02:29.072Z,15.54
2022-10-06T06:04:58.013Z,16.99
2022-10-06T06:07:26.710Z,17.85
2022-10-06T06:09:55.612Z,18.88
2022-10-06T06:12:24.480Z,20.17
2022-10-06T06:15:30.891Z,21.56
2022-10-06T06:18:06.334Z,22.50
2022-10-06T06:20:35.580Z,23.28
2022-10-06T06:23:04.235Z,23.95
2022-10-06T06:25:33.707Z,24.55
2022-10-06T06:28:02.537Z,24.99
2022-10-06T06:30:31.468Z,25.53
2022-10-06T06:33:00.691Z,26.12
2022-10-06T06:35:30.699Z,26.64
2022-10-06T06:37:59.883Z,26.94
2022-10-06T06:40:29.745Z,27.36
2022-10-06T06:42:58.257Z,27.75
2022-10-06T06:45:38.903Z,27.72
2022-10-06T06:48:21.233Z,26.76
2022-10-06T06:50:57.681Z,25.77
2022-10-06T06:53:26.493Z,24.31
2022-10-06T06:55:58.621Z,23.12
2022-10-06T06:58:27.983Z,22.21
2022-10-06T07:01:14.517Z,21.47
2022-10-06T07:04:02.832Z,20.85
2022-10-06T07:06:37.193Z,20.33
2022-10-06T07:09:07.072Z,19.96
2022-10-06T07:11:38.326Z,19.68
2022-10-06T07:14:13.015Z,19.39
2022-10-06T07:17:03.088Z,19.17
2022-10-06T07:19:41.154Z,19.04
2022-10-06T07:22:34.313Z,18.96
2022-10-06T07:25:26.564Z,18.98
2022-10-06T07:28:02.885Z,18.95
2022-10-06T07:30:45.238Z,18.86
2022-10-06T07:33:16.569Z,18.81
2022-10-06T07:35:46.505Z,18.84
2022-10-06T07:38:17.032Z,19.12
2022-10-06T07:43:49.112Z,19.57
2022-10-06T07:46:19.714Z,19.79
2022-10-06T07:49:05.708Z,20.05
2022-10-06T07:51:43.484Z,20.19
2022-10-06T07:54:12.077Z,20.14
2022-10-06T07:57:01.045Z,20.14
2022-10-06T07:59:29.551Z,20.28
2022-10-06T08:01:58.145Z,20.53
2022-10-06T08:04:26.960Z,20.64
2022-10-06T08:06:58.660Z,20.66
2022-10-06T08:09:27.381Z,20.56
2022-10-06T08:11:56.315Z,20.34
2022-10-06T08:14:27.793Z,20.07
2022-10-06T08:16:56.356Z,19.87
2022-10-06T08:19:26.889Z,19.77
2022-10-06T08:21:55.345Z,19.75
2022-10-06T08:24:24.009Z,20.07
2022-10-06T08:26:57.171Z,20.13
2022-10-06T08:29:44.653Z,19.99
2022-10-06T08:32:25.760Z,19.80
2022-10-06T08:35:05.736Z,19.68
2022-10-06T08:37:42.973Z,19.58
2022-10-06T08:40:22.978Z,19.54
2022-10-06T08:43:14.376Z,19.71
2022-10-06T08:45:50.710Z,19.94
2022-10-06T08:48:46.552Z,19.91
2022-10-06T08:51:54.650Z,19.74
2022-10-06T08:54:49.872Z,19.49
2022-10-06T08:57:56.035Z,19.30
2022-10-06T09:00:39.095Z,19.08
2022-10-06T09:03:33.491Z,18.98
2022-10-06T09:06:44.730Z,18.91
2022-10-06T09:09:34.333Z,18.89
2022-10-06T09:12:19.455Z,19.06
2022-10-06T09:15:26.000Z,19.43
2022-10-06T09:18:07.912Z,19.66
2022-10-06T09:21:01.861Z,19.80
2022-10-06T09:23:50.657Z,19.80
2022-10-06T09:26:30.193Z,19.66
2022-10-06T09:28:59.316Z,19.37
2022-10-06T09:31:32.128Z,19.15
2022-10-06T09:34:06.563Z,18.97
2022-10-06T09:37:05.351Z,18.84
2022-10-06T09:39:39.425Z,18.73
2022-10-06T09:42:10.997Z,18.60
2022-10-06T09:45:00.805Z,18.51
2022-10-06T09:47:41.449Z,18.34
2022-10-06T09:50:14.704Z,18.32
2022-10-06T09:53:05.208Z,18.30
2022-10-06T09:55:44.316Z,18.27
2022-10-06T09:58:35.028Z,18.21
2022-10-06T10:01:09.701Z,18.23
2022-10-06T10:04:15.467Z,18.20
2022-10-06T10:06:42.084Z,18.14
2022-10-06T10:09:29.793Z,18.09
2022-10-06T10:12:24.855Z,17.98
2022-10-06T10:15:23.863Z,17.86
2022-10-06T10:18:03.480Z,17.83
2022-10-06T10:20:36.591Z,17.89
2022-10-06T10:23:18.840Z,17.97
2022-10-06T10:25:59.459Z,17.96
2022-10-06T10:28:54.658Z,18.02
2022-10-06T10:31:45.234Z,17.99
2022-10-06T10:34:34.935Z,17.90
2022-10-06T10:37:16.697Z,17.82
2022-10-06T10:40:01.397Z,17.72
2022-10-06T10:42:38.116Z,17.72
2022-10-06T10:45:43.552Z,17.72
2022-10-06T10:48:35.076Z,17.77
2022-10-06T10:51:15.728Z,17.79
2022-10-06T10:53:52.497Z,17.70
2022-10-06T10:56:24.884Z,17.66
2022-10-06T10:59:15.675Z,17.65
2022-10-06T11:01:56.279Z,17.64
2022-10-06T11:04:25.248Z,17.56
2022-10-06T11:07:14.422Z,17.49
2022-10-06T11:10:06.414Z,17.49
2022-10-06T11:12:57.173Z,17.46
2022-10-06T11:15:35.068Z,17.49
2022-10-06T11:18:22.731Z,17.56
2022-10-06T11:21:10.563Z,17.84
2022-10-06T11:23:54.912Z,18.35
2022-10-06T11:26:36.215Z,18.60
2022-10-06T11:29:20.916Z,18.78
2022-10-06T11:32:10.968Z,18.93
2022-10-06T11:34:41.315Z,18.90
2022-10-06T11:37:35.344Z,18.89
2022-10-06T11:40:25.521Z,18.91
2022-10-06T11:43:17.390Z,18.96
2022-10-06T11:45:56.897Z,18.94
2022-10-06T11:48:27.303Z,18.82
2022-10-06T11:50:58.181Z,18.77
2022-10-06T11:53:32.667Z,18.81
2022-10-06T11:56:17.595Z,18.87
2022-10-06T11:58:52.846Z,18.90
2022-10-06T12:01:39.814Z,19.01
2022-10-06T12:04:08.643Z,19.10
2022-10-06T12:06:46.305Z,19.22
2022-10-06T12:09:32.938Z,19.36
2022-10-06T12:12:25.319Z,19.35
2022-10-06T12:18:28.164Z,19.56
2022-10-06T12:21:06.668Z,19.61
2022-10-06T12:23:59.550Z,19.62
2022-10-06T12:26:39.261Z,19.70
2022-10-06T12:29:57.028Z,19.65
2022-10-06T12:32:44.152Z,19.45
2022-10-06T12:35:27.900Z,19.37
2022-10-06T12:38:00.861Z,19.25
2022-10-06T12:40:49.626Z,19.14
2022-10-06T12:43:21.208Z,19.03
2022-10-06T12:46:00.825Z,18.93
2022-10-06T12:48:56.751Z,18.74
2022-10-06T12:51:36.678Z,18.57
2022-10-06T12:54:21.076Z,18.47
2022-10-06T12:57:00.928Z,18.34
2022-10-06T12:59:35.633Z,18.16
2022-10-06T13:02:20.175Z,18.03
2022-10-06T13:04:59.815Z,18.00
2022-10-06T13:07:34.477Z,18.00
2022-10-06T13:10:15.387Z,17.93
2022-10-06T13:12:47.548Z,17.88
2022-10-06T13:15:29.347Z,17.87
2022-10-06T13:18:10.828Z,17.85
2022-10-06T13:20:52.961Z,17.90
2022-10-06T13:23:34.189Z,17.89
2022-10-06T13:26:13.277Z,17.88
2022-10-06T13:28:44.638Z,17.82
2022-10-06T13:31:33.785Z,17.75
2022-10-06T13:34:11.080Z,17.71
2022-10-06T13:36:42.672Z,17.71
2022-10-06T13:39:18.237Z,17.74
2022-10-06T13:42:11.208Z,17.76
2022-10-06T13:44:45.733Z,17.76
2022-10-06T13:47:19.087Z,17.73
2022-10-06T13:49:58.878Z,17.70
2022-10-06T13:52:34.364Z,17.73
2022-10-06T13:55:05.568Z,17.70
2022-10-06T13:57:51.681Z,17.69
2022-10-06T14:00:33.827Z,17.73
2022-10-06T14:03:05.663Z,17.71
2022-10-06T14:05:40.227Z,17.66
2022-10-06T14:08:11.688Z,17.61
2022-10-06T14:10:52.706Z,17.62
2022-10-06T14:13:27.370Z,17.69
2022-10-06T14:16:02.580Z,17.66
2022-10-06T14:18:47.325Z,17.64
2022-10-06T14:21:45.971Z,17.61
2022-10-06T14:24:17.642Z,17.63
2022-10-06T14:26:51.304Z,17.64
2022-10-06T14:29:20.259Z,17.62
2022-10-06T14:31:49.575Z,17.62
2022-10-06T14:34:20.316Z,17.59
2022-10-06T14:36:55.505Z,17.58
2022-10-06T14:39:24.697Z,17.56
2022-10-06T14:41:53.237Z,17.50
2022-10-06T14:44:21.850Z,17.48
2022-10-06T14:46:53.972Z,17.42
2022-10-06T14:49:23.030Z,17.40
2022-10-06T14:51:56.117Z,17.38
2022-10-06T14:54:25.501Z,17.38
2022-10-06T14:56:54.119Z,17.34
2022-10-06T14:59:23.116Z,17.28
2022-10-06T15:01:52.129Z,17.26
2022-10-06T15:04:25.731Z,17.26
2022-10-06T15:07:13.097Z,17.22
2022-10-06T15:09:43.095Z,17.15
2022-10-06T15:12:11.684Z,17.10
2022-10-06T15:14:40.242Z,17.06
2022-10-06T15:17:09.314Z,17.01
2022-10-06T15:19:38.152Z,16.96
2022-10-06T15:22:09.150Z,16.93
2022-10-06T15:24:37.893Z,16.87
2022-10-06T15:27:25.428Z,16.80
2022-10-06T15:29:55.012Z,16.69
2022-10-06T15:32:23.869Z,16.63
2022-10-06T15:34:52.706Z,16.56
2022-10-06T15:37:21.352Z,16.52
2022-10-06T15:39:52.362Z,16.47
2022-10-06T15:42:24.564Z,16.39
2022-10-06T15:44:53.334Z,16.36
2022-10-06T15:47:21.969Z,16.32
2022-10-06T15:49:50.871Z,16.29
2022-10-06T15:52:19.635Z,16.25
2022-10-06T15:54:50.155Z,16.22
2022-10-06T15:57:21.302Z,16.18
2022-10-06T15:59:50.378Z,16.19
2022-10-06T16:02:20.652Z,16.11
2022-10-06T16:05:17.541Z,16.09
2022-10-06T16:07:46.362Z,16.00
2022-10-06T16:10:15.292Z,15.92
2022-10-06T16:12:43.732Z,15.85
2022-10-06T16:15:12.833Z,15.77
2022-10-06T16:17:41.660Z,15.68
2022-10-06T16:20:11.859Z,15.59
2022-10-06T16:22:41.547Z,15.52
2022-10-06T16:25:10.338Z,15.47
2022-10-06T16:27:39.868Z,15.46
2022-10-06T16:30:12.206Z,15.45
2022-10-06T16:32:41.337Z,15.41
2022-10-06T16:35:13.560Z,15.39
2022-10-06T16:37:50.288Z,15.35
2022-10-06T16:40:19.323Z,15.26
2022-10-06T16:42:48.188Z,15.19
2022-10-06T16:45:17.026Z,15.08
2022-10-06T16:47:45.754Z,14.97
2022-10-06T16:50:14.712Z,14.88
2022-10-06T16:52:43.658Z,14.81
2022-10-06T16:55:12.584Z,14.74
2022-10-06T16:57:41.037Z,14.73
2022-10-06T17:00:10.531Z,14.75
2022-10-06T17:02:58.480Z,14.75
2022-10-06T17:05:55.848Z,14.76
2022-10-06T17:08:54.871Z,14.70
2022-10-06T17:11:41.885Z,14.63
2022-10-06T17:14:46.272Z,14.63
2022-10-06T17:17:43.281Z,14.64
2022-10-06T17:21:32.305Z,14.59
2022-10-06T17:24:27.654Z,14.54
2022-10-06T17:27:22.690Z,14.52
2022-10-06T17:30:28.252Z,14.48
2022-10-06T17:33:28.041Z,14.45
2022-10-06T17:36:41.653Z,14.41
2022-10-06T17:39:25.787Z,14.33
2022-10-06T17:41:55.251Z,14.22
2022-10-06T17:44:27.184Z,14.13
2022-10-06T17:46:58.874Z,14.03
2022-10-06T17:49:30.693Z,13.92
2022-10-06T17:51:59.668Z,13.88
2022-10-06T17:54:29.058Z,13.88
2022-10-06T17:56:58.228Z,13.93
2022-10-06T17:59:31.231Z,13.86
2022-10-06T18:02:03.033Z,13.74
2022-10-06T18:04:36.547Z,13.54
2022-10-06T18:07:06.480Z,13.38
2022-10-06T18:09:36.096Z,13.33
2022-10-06T18:12:05.330Z,13.36
2022-10-06T18:14:34.412Z,13.33
2022-10-06T18:17:04.277Z,13.33
2022-10-06T18:19:35.226Z,13.29
2022-10-06T18:22:10.828Z,13.26
2022-10-06T18:24:40.706Z,13.26
2022-10-06T18:27:09.623Z,13.25
2022-10-06T18:29:39.193Z,13.25
2022-10-06T18:33:00.262Z,13.27
2022-10-06T18:37:46.918Z,13.22
2022-10-06T18:40:16.011Z,13.05
2022-10-06T18:42:44.648Z,12.92
2022-10-06T18:45:36.760Z,12.80
2022-10-06T18:48:27.814Z,12.77
2022-10-06T18:51:06.628Z,12.78
2022-10-06T18:53:38.663Z,12.71
2022-10-06T18:56:07.907Z,12.67
2022-10-06T18:58:41.334Z,12.74
2022-10-06T19:01:10.970Z,12.79
2022-10-06T19:03:40.429Z,12.85
2022-10-06T19:06:09.167Z,12.87
2022-10-06T19:08:38.066Z,12.88
2022-10-06T19:11:26.411Z,12.85
2022-10-06T19:13:57.891Z,12.84
2022-10-06T19:16:26.841Z,12.84
2022-10-06T19:18:55.873Z,12.87
2022-10-06T19:21:25.040Z,12.92
2022-10-06T19:23:53.982Z,12.90
2022-10-06T19:26:23.243Z,12.91
2022-10-06T19:28:53.815Z,12.88
2022-10-06T19:31:22.470Z,12.85
2022-10-06T19:33:51.209Z,12.83
2022-10-06T19:36:20.037Z,12.77
2022-10-06T19:38:48.734Z,12.73
2022-10-06T19:41:35.978Z,12.69
2022-10-06T19:44:04.990Z,12.73
2022-10-06T19:46:33.470Z,12.79
2022-10-06T19:49:06.015Z,12.81
2022-10-06T19:51:37.004Z,12.86
2022-10-06T19:54:05.569Z,12.86
2022-10-06T19:56:34.150Z,12.89
2022-10-06T19:59:04.055Z,12.86
2022-10-06T20:01:33.559Z,12.84
2022-10-06T20:04:04.398Z,12.81
2022-10-06T20:06:35.413Z,12.82
2022-10-06T20:09:09.475Z,12.77
2022-10-06T20:11:44.331Z,12.76
2022-10-06T20:14:20.537Z,12.73
2022-10-06T20:16:53.770Z,12.70
2022-10-06T20:19:22.939Z,12.67
2022-10-06T20:21:52.389Z,12.65
2022-10-06T20:24:23.693Z,12.63
2022-10-06T20:26:54.599Z,12.63
2022-10-06T20:29:26.186Z,12.59
2022-10-06T20:31:56.844Z,12.49
2022-10-06T20:34:32.406Z,12.34
2022-10-06T20:37:03.507Z,12.10
2022-10-06T20:39:52.906Z,11.92
2022-10-06T20:42:21.814Z,11.84
2022-10-06T20:44:50.706Z,11.79
2022-10-06T20:47:20.010Z,11.79
2022-10-06T20:49:54.555Z,11.74
2022-10-06T20:52:24.730Z,11.72
2022-10-06T20:54:53.757Z,11.60
2022-10-06T20:57:22.177Z,11.46
2022-10-06T20:59:53.060Z,11.39
2022-10-06T21:02:22.243Z,11.44
2022-10-06T21:04:50.729Z,11.51
2022-10-06T21:07:20.040Z,11.58
2022-10-06T21:09:52.048Z,11.56
2022-10-06T21:12:21.483Z,11.56
2022-10-06T21:14:50.065Z,11.58
2022-10-06T21:17:19.209Z,11.62
2022-10-06T21:19:48.338Z,11.62
2022-10-06T21:22:16.868Z,11.69
2022-10-06T21:24:45.410Z,11.67
2022-10-06T21:27:14.849Z,11.65
2022-10-06T21:29:43.306Z,11.62
2022-10-06T21:32:12.065Z,11.65
2022-10-06T21:34:41.102Z,11.61
2022-10-06T21:37:09.491Z,11.55
2022-10-06T21:39:38.252Z,11.49
2022-10-06T21:42:07.419Z,11.47
2022-10-06T21:44:35.919Z,11.42
2022-10-06T21:47:04.825Z,11.41
2022-10-06T21:49:34.693Z,11.42
2022-10-06T21:52:05.924Z,11.47
2022-10-06T21:54:34.749Z,11.46
2022-10-06T21:57:04.006Z,11.46
2022-10-06T21:59:32.422Z,11.41
2022-10-06T22:02:01.195Z,11.42
2022-10-06T22:04:30.257Z,11.43
2022-10-06T22:06:59.002Z,11.49
2022-10-06T22:09:27.970Z,11.48
2022-10-06T22:11:56.790Z,11.47
2022-10-06T22:14:25.573Z,11.43
2022-10-06T22:16:54.117Z,11.43
2022-10-06T22:19:22.827Z,11.44
2022-10-06T22:21:51.659Z,11.41
2022-10-06T22:24:21.660Z,11.36
2022-10-06T22:26:50.609Z,11.38
2022-10-06T22:29:20.590Z,11.41
2022-10-06T22:31:49.747Z,11.42
2022-10-06T22:34:20.251Z,11.44
2022-10-06T22:36:48.801Z,11.48
2022-10-06T22:39:17.789Z,11.49
2022-10-06T22:41:46.940Z,11.54
2022-10-06T22:44:15.413Z,11.48
2022-10-06T22:46:44.156Z,11.41
2022-10-06T22:49:13.280Z,11.40
2022-10-06T22:51:41.842Z,11.34
2022-10-06T22:54:17.522Z,11.29
2022-10-06T22:56:46.026Z,11.23
2022-10-06T22:59:14.963Z,11.21
2022-10-06T23:01:43.902Z,11.16
2022-10-06T23:04:12.357Z,11.10
2022-10-06T23:06:40.931Z,11.03
2022-10-06T23:09:09.951Z,11.01
2022-10-06T23:11:38.392Z,11.01
2022-10-06T23:14:07.370Z,10.93
2022-10-06T23:16:36.252Z,10.88
2022-10-06T23:19:06.033Z,10.81
2022-10-06T23:21:34.946Z,10.79
2022-10-06T23:24:03.657Z,10.79
2022-10-06T23:26:32.587Z,10.80
2022-10-06T23:29:02.191Z,10.81
2022-10-06T23:31:32.453Z,10.77
2022-10-06T23:34:00.902Z,10.80
2022-10-06T23:36:29.439Z,10.79
2022-10-06T23:38:58.551Z,10.87
2022-10-06T23:41:26.982Z,10.88
2022-10-06T23:43:55.491Z,10.90
2022-10-06T23:46:24.615Z,10.86
2022-10-06T23:48:53.301Z,10.87
2022-10-06T23:51:22.112Z,10.81
2022-10-06T23:53:50.897Z,10.82
2022-10-06T23:56:21.026Z,10.80
2022-10-06T23:58:49.385Z,10.79
